sensor_id;sensor_type;location;lat;lon;timestamp;temperature;humidity
506;DHT22;551;48.524;9.056;2023-07-16T00:01:56;22.70;1.00
506;DHT22;551;48.524;9.056;2023-07-16T00:04:22;22.60;1.00
506;DHT22;551;48.524;9.056;2023-07-16T00:09:13;22.60;1.00
506;DHT22;551;48.524;9.056;2023-07-16T00:11:39;22.60;1.00
506;DHT22;551;48.524;9.056;2023-07-16T00:14:04;22.50;1.00
506;DHT22;551;48.524;9.056;2023-07-16T00:16:30;22.60;1.00
506;DHT22;551;48.524;9.056;2023-07-16T00:18:56;22.50;1.00
506;DHT22;551;48.524;9.056;2023-07-16T00:21:21;22.60;1.00
506;DHT22;551;48.524;9.056;2023-07-16T00:23:47;22.50;1.00
506;DHT22;551;48.524;9.056;2023-07-16T00:26:13;22.50;1.00
506;DHT22;551;48.524;9.056;2023-07-16T00:28:38;22.50;1.00
506;DHT22;551;48.524;9.056;2023-07-16T00:31:04;22.50;1.00
506;DHT22;551;48.524;9.056;2023-07-16T00:33:29;22.60;1.00
506;DHT22;551;48.524;9.056;2023-07-16T00:35:55;22.60;1.00
506;DHT22;551;48.524;9.056;2023-07-16T00:38:21;22.60;1.00
506;DHT22;551;48.524;9.056;2023-07-16T00:40:46;22.60;1.00
506;DHT22;551;48.524;9.056;2023-07-16T00:43:12;22.60;1.00
506;DHT22;551;48.524;9.056;2023-07-16T00:45:38;22.60;1.00
506;DHT22;551;48.524;9.056;2023-07-16T00:48:06;22.70;1.00
506;DHT22;551;48.524;9.056;2023-07-16T00:50:32;22.70;1.00
506;DHT22;551;48.524;9.056;2023-07-16T00:53:05;22.60;1.00
506;DHT22;551;48.524;9.056;2023-07-16T00:55:31;22.60;1.00
506;DHT22;551;48.524;9.056;2023-07-16T00:58:03;22.50;1.00
506;DHT22;551;48.524;9.056;2023-07-16T01:00:34;22.50;1.00
506;DHT22;551;48.524;9.056;2023-07-16T01:03:11;22.50;1.00
506;DHT22;551;48.524;9.056;2023-07-16T01:08:29;22.40;1.00
506;DHT22;551;48.524;9.056;2023-07-16T01:10:57;22.30;1.00
506;DHT22;551;48.524;9.056;2023-07-16T01:13:23;22.30;1.00
506;DHT22;551;48.524;9.056;2023-07-16T01:15:49;22.30;1.00
506;DHT22;551;48.524;9.056;2023-07-16T01:18:15;22.20;1.00
506;DHT22;551;48.524;9.056;2023-07-16T01:20:40;22.10;1.00
506;DHT22;551;48.524;9.056;2023-07-16T01:31:29;21.80;1.00
506;DHT22;551;48.524;9.056;2023-07-16T01:33:56;21.70;1.00
506;DHT22;551;48.524;9.056;2023-07-16T01:36:23;21.70;1.00
506;DHT22;551;48.524;9.056;2023-07-16T01:38:49;21.60;1.00
506;DHT22;551;48.524;9.056;2023-07-16T01:41:15;21.40;1.00
506;DHT22;551;48.524;9.056;2023-07-16T01:43:40;21.30;1.00
506;DHT22;551;48.524;9.056;2023-07-16T01:46:06;21.30;1.00
506;DHT22;551;48.524;9.056;2023-07-16T01:48:35;21.30;1.00
506;DHT22;551;48.524;9.056;2023-07-16T01:51:03;21.20;1.00
506;DHT22;551;48.524;9.056;2023-07-16T01:53:28;21.20;1.00
506;DHT22;551;48.524;9.056;2023-07-16T01:55:54;21.20;1.00
506;DHT22;551;48.524;9.056;2023-07-16T01:58:19;21.10;1.00
506;DHT22;551;48.524;9.056;2023-07-16T02:00:45;21.10;1.00
506;DHT22;551;48.524;9.056;2023-07-16T02:03:11;21.00;1.00
506;DHT22;551;48.524;9.056;2023-07-16T02:05:37;21.00;1.00
506;DHT22;551;48.524;9.056;2023-07-16T02:08:02;21.00;1.00
506;DHT22;551;48.524;9.056;2023-07-16T02:10:28;20.90;1.00
506;DHT22;551;48.524;9.056;2023-07-16T02:15:19;20.90;1.00
506;DHT22;551;48.524;9.056;2023-07-16T02:17:45;21.00;1.00
506;DHT22;551;48.524;9.056;2023-07-16T02:20:11;20.90;1.00
506;DHT22;551;48.524;9.056;2023-07-16T02:22:37;20.90;1.00
506;DHT22;551;48.524;9.056;2023-07-16T02:25:02;20.90;1.00
506;DHT22;551;48.524;9.056;2023-07-16T02:27:28;20.90;1.00
506;DHT22;551;48.524;9.056;2023-07-16T02:29:54;20.90;1.00
506;DHT22;551;48.524;9.056;2023-07-16T02:32:19;20.90;1.00
506;DHT22;551;48.524;9.056;2023-07-16T02:34:45;20.90;1.00
506;DHT22;551;48.524;9.056;2023-07-16T02:37:11;20.90;1.00
506;DHT22;551;48.524;9.056;2023-07-16T02:39:38;20.80;1.00
506;DHT22;551;48.524;9.056;2023-07-16T02:42:03;20.70;1.00
506;DHT22;551;48.524;9.056;2023-07-16T02:44:29;20.70;1.00
506;DHT22;551;48.524;9.056;2023-07-16T02:49:20;20.70;1.00
506;DHT22;551;48.524;9.056;2023-07-16T02:51:46;20.70;1.00
506;DHT22;551;48.524;9.056;2023-07-16T02:56:37;20.60;1.00
506;DHT22;551;48.524;9.056;2023-07-16T02:59:03;20.60;1.00
506;DHT22;551;48.524;9.056;2023-07-16T03:01:28;20.60;1.00
506;DHT22;551;48.524;9.056;2023-07-16T03:03:54;20.60;1.00
506;DHT22;551;48.524;9.056;2023-07-16T03:06:20;20.60;1.00
506;DHT22;551;48.524;9.056;2023-07-16T03:08:45;20.60;1.00
506;DHT22;551;48.524;9.056;2023-07-16T03:11:11;20.60;1.00
506;DHT22;551;48.524;9.056;2023-07-16T03:13:37;20.60;1.00
506;DHT22;551;48.524;9.056;2023-07-16T03:16:02;20.60;1.00
506;DHT22;551;48.524;9.056;2023-07-16T03:18:29;20.60;1.00
506;DHT22;551;48.524;9.056;2023-07-16T03:20:55;20.60;1.00
506;DHT22;551;48.524;9.056;2023-07-16T03:23:21;20.60;1.00
506;DHT22;551;48.524;9.056;2023-07-16T03:25:46;20.90;1.00
506;DHT22;551;48.524;9.056;2023-07-16T03:28:13;20.80;1.00
506;DHT22;551;48.524;9.056;2023-07-16T03:30:38;20.80;1.00
506;DHT22;551;48.524;9.056;2023-07-16T03:33:04;20.70;1.00
506;DHT22;551;48.524;9.056;2023-07-16T03:35:30;20.70;1.00
506;DHT22;551;48.524;9.056;2023-07-16T03:37:55;20.70;1.00
506;DHT22;551;48.524;9.056;2023-07-16T03:40:25;20.70;1.00
506;DHT22;551;48.524;9.056;2023-07-16T03:42:51;20.70;1.00
506;DHT22;551;48.524;9.056;2023-07-16T03:45:17;20.70;1.00
506;DHT22;551;48.524;9.056;2023-07-16T03:47:43;20.70;1.00
506;DHT22;551;48.524;9.056;2023-07-16T03:50:11;20.70;1.00
506;DHT22;551;48.524;9.056;2023-07-16T03:52:37;20.70;1.00
506;DHT22;551;48.524;9.056;2023-07-16T03:55:02;20.60;1.00
506;DHT22;551;48.524;9.056;2023-07-16T03:57:28;20.60;1.00
506;DHT22;551;48.524;9.056;2023-07-16T03:59:54;20.40;1.00
506;DHT22;551;48.524;9.056;2023-07-16T04:02:20;20.40;1.00
506;DHT22;551;48.524;9.056;2023-07-16T04:07:12;20.30;1.00
506;DHT22;551;48.524;9.056;2023-07-16T04:09:38;20.30;1.00
506;DHT22;551;48.524;9.056;2023-07-16T04:12:05;20.20;1.00
506;DHT22;551;48.524;9.056;2023-07-16T04:14:30;20.10;1.00
506;DHT22;551;48.524;9.056;2023-07-16T04:16:56;20.00;1.00
506;DHT22;551;48.524;9.056;2023-07-16T04:19:21;20.00;1.00
506;DHT22;551;48.524;9.056;2023-07-16T04:21:47;20.10;1.00
506;DHT22;551;48.524;9.056;2023-07-16T04:24:13;20.10;1.00
506;DHT22;551;48.524;9.056;2023-07-16T04:26:38;20.00;1.00
506;DHT22;551;48.524;9.056;2023-07-16T04:29:03;20.00;1.00
506;DHT22;551;48.524;9.056;2023-07-16T04:31:29;20.00;1.00
506;DHT22;551;48.524;9.056;2023-07-16T04:33:54;20.00;1.00
506;DHT22;551;48.524;9.056;2023-07-16T04:36:20;20.10;1.00
506;DHT22;551;48.524;9.056;2023-07-16T04:38:45;20.00;1.00
506;DHT22;551;48.524;9.056;2023-07-16T04:41:11;20.00;1.00
506;DHT22;551;48.524;9.056;2023-07-16T04:43:38;19.90;1.00
506;DHT22;551;48.524;9.056;2023-07-16T04:46:03;19.90;1.00
506;DHT22;551;48.524;9.056;2023-07-16T04:48:29;19.90;1.00
506;DHT22;551;48.524;9.056;2023-07-16T04:53:22;20.00;1.00
506;DHT22;551;48.524;9.056;2023-07-16T04:55:48;20.00;1.00
506;DHT22;551;48.524;9.056;2023-07-16T04:58:14;20.00;1.00
506;DHT22;551;48.524;9.056;2023-07-16T05:00:40;19.90;1.00
506;DHT22;551;48.524;9.056;2023-07-16T05:03:06;20.00;1.00
506;DHT22;551;48.524;9.056;2023-07-16T05:05:31;19.90;1.00
506;DHT22;551;48.524;9.056;2023-07-16T05:07:57;19.90;1.00
506;DHT22;551;48.524;9.056;2023-07-16T05:10:23;19.80;1.00
506;DHT22;551;48.524;9.056;2023-07-16T05:12:49;19.90;1.00
506;DHT22;551;48.524;9.056;2023-07-16T05:15:15;19.90;1.00
506;DHT22;551;48.524;9.056;2023-07-16T05:17:40;19.90;1.00
506;DHT22;551;48.524;9.056;2023-07-16T05:20:06;19.90;1.00
506;DHT22;551;48.524;9.056;2023-07-16T05:22:33;20.00;1.00
506;DHT22;551;48.524;9.056;2023-07-16T05:24:58;20.00;1.00
506;DHT22;551;48.524;9.056;2023-07-16T05:27:24;20.00;1.00
506;DHT22;551;48.524;9.056;2023-07-16T05:29:49;20.00;1.00
506;DHT22;551;48.524;9.056;2023-07-16T05:32:15;20.10;1.00
506;DHT22;551;48.524;9.056;2023-07-16T05:34:40;20.20;1.00
506;DHT22;551;48.524;9.056;2023-07-16T05:37:06;20.40;1.00
506;DHT22;551;48.524;9.056;2023-07-16T05:39:31;20.60;1.00
506;DHT22;551;48.524;9.056;2023-07-16T05:44:23;21.20;1.00
506;DHT22;551;48.524;9.056;2023-07-16T05:46:49;21.60;1.00
506;DHT22;551;48.524;9.056;2023-07-16T05:49:14;21.70;1.00
506;DHT22;551;48.524;9.056;2023-07-16T05:51:40;21.80;1.00
506;DHT22;551;48.524;9.056;2023-07-16T05:54:05;21.70;1.00
506;DHT22;551;48.524;9.056;2023-07-16T05:56:31;21.60;1.00
506;DHT22;551;48.524;9.056;2023-07-16T05:58:57;21.50;1.00
506;DHT22;551;48.524;9.056;2023-07-16T06:01:23;21.50;1.00
506;DHT22;551;48.524;9.056;2023-07-16T06:03:48;21.50;1.00
506;DHT22;551;48.524;9.056;2023-07-16T06:06:14;21.50;1.00
506;DHT22;551;48.524;9.056;2023-07-16T06:08:39;21.30;1.00
506;DHT22;551;48.524;9.056;2023-07-16T06:11:05;21.30;1.00
506;DHT22;551;48.524;9.056;2023-07-16T06:13:31;21.20;1.00
506;DHT22;551;48.524;9.056;2023-07-16T06:15:56;21.00;1.00
506;DHT22;551;48.524;9.056;2023-07-16T06:18:22;20.90;1.00
506;DHT22;551;48.524;9.056;2023-07-16T06:20:47;20.80;1.00
506;DHT22;551;48.524;9.056;2023-07-16T06:23:13;20.80;1.00
506;DHT22;551;48.524;9.056;2023-07-16T06:28:06;20.80;1.00
506;DHT22;551;48.524;9.056;2023-07-16T06:30:31;20.80;1.00
506;DHT22;551;48.524;9.056;2023-07-16T06:32:58;20.80;1.00
506;DHT22;551;48.524;9.056;2023-07-16T06:35:24;20.90;1.00
506;DHT22;551;48.524;9.056;2023-07-16T06:37:49;21.10;1.00
506;DHT22;551;48.524;9.056;2023-07-16T06:40:15;21.30;1.00
506;DHT22;551;48.524;9.056;2023-07-16T06:42:40;21.50;1.00
506;DHT22;551;48.524;9.056;2023-07-16T06:45:07;21.80;1.00
506;DHT22;551;48.524;9.056;2023-07-16T06:47:32;22.30;1.00
506;DHT22;551;48.524;9.056;2023-07-16T06:49:58;22.80;1.00
506;DHT22;551;48.524;9.056;2023-07-16T06:52:24;23.10;1.00
506;DHT22;551;48.524;9.056;2023-07-16T06:54:55;23.10;1.00
506;DHT22;551;48.524;9.056;2023-07-16T06:57:24;23.10;1.00
506;DHT22;551;48.524;9.056;2023-07-16T06:59:49;23.70;1.00
506;DHT22;551;48.524;9.056;2023-07-16T07:02:19;25.50;1.00
506;DHT22;551;48.524;9.056;2023-07-16T07:04:44;27.30;1.00
506;DHT22;551;48.524;9.056;2023-07-16T07:07:10;29.60;1.00
506;DHT22;551;48.524;9.056;2023-07-16T07:09:35;32.10;1.00
506;DHT22;551;48.524;9.056;2023-07-16T07:12:01;33.90;1.00
506;DHT22;551;48.524;9.056;2023-07-16T07:14:27;35.60;1.00
506;DHT22;551;48.524;9.056;2023-07-16T07:16:52;36.70;1.00
506;DHT22;551;48.524;9.056;2023-07-16T07:19:18;37.90;1.00
506;DHT22;551;48.524;9.056;2023-07-16T07:21:44;39.10;1.00
506;DHT22;551;48.524;9.056;2023-07-16T07:24:09;39.90;1.00
506;DHT22;551;48.524;9.056;2023-07-16T07:26:35;40.40;1.00
506;DHT22;551;48.524;9.056;2023-07-16T07:29:00;40.60;1.00
506;DHT22;551;48.524;9.056;2023-07-16T07:31:26;41.10;1.00
506;DHT22;551;48.524;9.056;2023-07-16T07:33:51;42.00;1.00
506;DHT22;551;48.524;9.056;2023-07-16T07:36:19;41.40;1.00
506;DHT22;551;48.524;9.056;2023-07-16T07:38:44;40.00;1.00
506;DHT22;551;48.524;9.056;2023-07-16T07:41:10;39.10;1.00
506;DHT22;551;48.524;9.056;2023-07-16T07:43:35;37.80;1.00
506;DHT22;551;48.524;9.056;2023-07-16T07:46:01;37.70;1.00
506;DHT22;551;48.524;9.056;2023-07-16T07:48:26;39.00;1.00
506;DHT22;551;48.524;9.056;2023-07-16T07:50:52;39.40;1.00
506;DHT22;551;48.524;9.056;2023-07-16T07:53:17;38.60;1.00
506;DHT22;551;48.524;9.056;2023-07-16T07:55:45;37.30;1.00
506;DHT22;551;48.524;9.056;2023-07-16T07:58:11;37.00;1.00
506;DHT22;551;48.524;9.056;2023-07-16T08:00:38;37.20;1.00
506;DHT22;551;48.524;9.056;2023-07-16T08:03:03;37.90;1.00
506;DHT22;551;48.524;9.056;2023-07-16T08:05:29;39.40;1.00
506;DHT22;551;48.524;9.056;2023-07-16T08:07:54;40.50;1.00
506;DHT22;551;48.524;9.056;2023-07-16T08:10:21;41.20;1.00
506;DHT22;551;48.524;9.056;2023-07-16T08:12:47;41.20;1.00
506;DHT22;551;48.524;9.056;2023-07-16T08:15:13;40.00;1.00
506;DHT22;551;48.524;9.056;2023-07-16T08:17:42;38.70;1.00
506;DHT22;551;48.524;9.056;2023-07-16T08:20:08;37.80;1.00
506;DHT22;551;48.524;9.056;2023-07-16T08:22:34;36.90;1.00
506;DHT22;551;48.524;9.056;2023-07-16T08:25:00;35.60;1.00
506;DHT22;551;48.524;9.056;2023-07-16T08:27:25;35.30;1.00
506;DHT22;551;48.524;9.056;2023-07-16T08:29:51;34.70;1.00
506;DHT22;551;48.524;9.056;2023-07-16T08:32:16;34.20;1.00
506;DHT22;551;48.524;9.056;2023-07-16T08:34:42;34.10;1.00
506;DHT22;551;48.524;9.056;2023-07-16T08:37:07;34.00;1.00
506;DHT22;551;48.524;9.056;2023-07-16T08:39:33;33.40;1.00
506;DHT22;551;48.524;9.056;2023-07-16T08:41:59;32.70;1.00
506;DHT22;551;48.524;9.056;2023-07-16T08:44:25;32.00;1.00
506;DHT22;551;48.524;9.056;2023-07-16T08:46:51;31.30;1.00
506;DHT22;551;48.524;9.056;2023-07-16T08:49:18;30.70;1.00
506;DHT22;551;48.524;9.056;2023-07-16T08:51:47;30.30;1.00
506;DHT22;551;48.524;9.056;2023-07-16T08:54:13;30.40;1.00
506;DHT22;551;48.524;9.056;2023-07-16T08:56:42;31.00;1.00
506;DHT22;551;48.524;9.056;2023-07-16T08:59:08;32.70;1.00
506;DHT22;551;48.524;9.056;2023-07-16T09:01:34;35.00;1.00
506;DHT22;551;48.524;9.056;2023-07-16T09:04:00;36.80;1.00
506;DHT22;551;48.524;9.056;2023-07-16T09:06:25;37.40;1.00
506;DHT22;551;48.524;9.056;2023-07-16T09:08:52;37.80;1.00
506;DHT22;551;48.524;9.056;2023-07-16T09:11:17;37.50;1.00
506;DHT22;551;48.524;9.056;2023-07-16T09:13:46;36.80;1.00
506;DHT22;551;48.524;9.056;2023-07-16T09:16:12;36.80;1.00
506;DHT22;551;48.524;9.056;2023-07-16T09:18:40;36.50;1.00
506;DHT22;551;48.524;9.056;2023-07-16T09:21:06;35.30;1.00
506;DHT22;551;48.524;9.056;2023-07-16T09:23:32;34.00;1.00
506;DHT22;551;48.524;9.056;2023-07-16T09:25:58;32.60;1.00
506;DHT22;551;48.524;9.056;2023-07-16T09:28:24;31.80;1.00
506;DHT22;551;48.524;9.056;2023-07-16T09:30:51;32.30;1.00
506;DHT22;551;48.524;9.056;2023-07-16T09:33:21;33.80;1.00
506;DHT22;551;48.524;9.056;2023-07-16T09:35:48;35.10;1.00
506;DHT22;551;48.524;9.056;2023-07-16T09:38:14;36.30;1.00
506;DHT22;551;48.524;9.056;2023-07-16T09:40:41;36.00;1.00
506;DHT22;551;48.524;9.056;2023-07-16T09:43:10;36.90;1.00
506;DHT22;551;48.524;9.056;2023-07-16T09:45:41;38.50;1.00
506;DHT22;551;48.524;9.056;2023-07-16T09:48:07;40.30;1.00
506;DHT22;551;48.524;9.056;2023-07-16T09:50:35;40.90;1.00
506;DHT22;551;48.524;9.056;2023-07-16T09:53:01;40.20;1.00
506;DHT22;551;48.524;9.056;2023-07-16T09:55:31;40.20;1.00
506;DHT22;551;48.524;9.056;2023-07-16T09:57:59;40.80;1.00
506;DHT22;551;48.524;9.056;2023-07-16T10:00:26;42.40;1.00
506;DHT22;551;48.524;9.056;2023-07-16T10:02:52;41.80;1.00
506;DHT22;551;48.524;9.056;2023-07-16T10:05:23;39.30;1.00
506;DHT22;551;48.524;9.056;2023-07-16T10:07:58;38.20;1.00
506;DHT22;551;48.524;9.056;2023-07-16T10:10:43;37.40;1.00
506;DHT22;551;48.524;9.056;2023-07-16T10:13:12;37.20;1.00
506;DHT22;551;48.524;9.056;2023-07-16T10:15:39;38.00;1.00
506;DHT22;551;48.524;9.056;2023-07-16T10:18:05;37.40;1.00
506;DHT22;551;48.524;9.056;2023-07-16T10:20:35;36.60;1.00
506;DHT22;551;48.524;9.056;2023-07-16T10:23:15;37.20;1.00
506;DHT22;551;48.524;9.056;2023-07-16T10:26:02;38.60;1.00
506;DHT22;551;48.524;9.056;2023-07-16T10:28:34;38.90;1.00
506;DHT22;551;48.524;9.056;2023-07-16T10:31:00;38.60;1.00
506;DHT22;551;48.524;9.056;2023-07-16T10:33:25;38.20;1.00
506;DHT22;551;48.524;9.056;2023-07-16T10:35:51;38.30;1.00
506;DHT22;551;48.524;9.056;2023-07-16T10:38:16;39.30;1.00
506;DHT22;551;48.524;9.056;2023-07-16T10:40:45;39.50;1.00
506;DHT22;551;48.524;9.056;2023-07-16T10:43:12;38.90;1.00
506;DHT22;551;48.524;9.056;2023-07-16T10:45:38;38.40;1.00
506;DHT22;551;48.524;9.056;2023-07-16T10:48:04;38.40;1.00
506;DHT22;551;48.524;9.056;2023-07-16T10:50:33;38.40;1.00
506;DHT22;551;48.524;9.056;2023-07-16T10:52:59;38.00;1.00
506;DHT22;551;48.524;9.056;2023-07-16T10:55:27;37.60;1.00
506;DHT22;551;48.524;9.056;2023-07-16T10:57:53;37.40;1.00
506;DHT22;551;48.524;9.056;2023-07-16T11:00:20;38.20;1.00
506;DHT22;551;48.524;9.056;2023-07-16T11:02:46;39.30;1.00
506;DHT22;551;48.524;9.056;2023-07-16T11:05:16;39.70;1.00
506;DHT22;551;48.524;9.056;2023-07-16T11:07:52;40.70;1.00
506;DHT22;551;48.524;9.056;2023-07-16T11:10:18;40.10;1.00
506;DHT22;551;48.524;9.056;2023-07-16T11:12:44;39.10;1.00
506;DHT22;551;48.524;9.056;2023-07-16T11:15:10;38.50;1.00
506;DHT22;551;48.524;9.056;2023-07-16T11:17:39;37.90;1.00
506;DHT22;551;48.524;9.056;2023-07-16T11:20:07;37.10;1.00
506;DHT22;551;48.524;9.056;2023-07-16T11:22:37;37.10;1.00
506;DHT22;551;48.524;9.056;2023-07-16T11:25:02;37.50;1.00
506;DHT22;551;48.524;9.056;2023-07-16T11:27:31;38.20;1.00
506;DHT22;551;48.524;9.056;2023-07-16T11:29:59;39.20;1.00
506;DHT22;551;48.524;9.056;2023-07-16T11:32:32;39.80;1.00
506;DHT22;551;48.524;9.056;2023-07-16T11:35:00;40.50;1.00
506;DHT22;551;48.524;9.056;2023-07-16T11:37:26;40.90;1.00
506;DHT22;551;48.524;9.056;2023-07-16T11:42:30;42.20;1.00
506;DHT22;551;48.524;9.056;2023-07-16T11:44:59;41.20;1.00
506;DHT22;551;48.524;9.056;2023-07-16T11:47:26;39.40;1.00
506;DHT22;551;48.524;9.056;2023-07-16T11:49:52;38.40;1.00
506;DHT22;551;48.524;9.056;2023-07-16T11:52:28;38.40;1.00
506;DHT22;551;48.524;9.056;2023-07-16T11:54:55;38.90;1.00
506;DHT22;551;48.524;9.056;2023-07-16T11:57:21;38.00;1.00
506;DHT22;551;48.524;9.056;2023-07-16T11:59:47;37.10;1.00
506;DHT22;551;48.524;9.056;2023-07-16T12:02:12;36.70;1.00
506;DHT22;551;48.524;9.056;2023-07-16T12:04:38;36.20;1.00
506;DHT22;551;48.524;9.056;2023-07-16T12:07:03;35.90;1.00
506;DHT22;551;48.524;9.056;2023-07-16T12:09:29;35.30;1.00
506;DHT22;551;48.524;9.056;2023-07-16T12:11:55;34.70;1.00
506;DHT22;551;48.524;9.056;2023-07-16T12:14:21;34.10;1.00
506;DHT22;551;48.524;9.056;2023-07-16T12:16:47;33.60;1.00
506;DHT22;551;48.524;9.056;2023-07-16T12:19:12;33.10;1.00
506;DHT22;551;48.524;9.056;2023-07-16T12:21:38;32.90;1.00
506;DHT22;551;48.524;9.056;2023-07-16T12:24:03;32.50;1.00
506;DHT22;551;48.524;9.056;2023-07-16T12:26:29;32.20;1.00
506;DHT22;551;48.524;9.056;2023-07-16T12:28:54;31.80;1.00
506;DHT22;551;48.524;9.056;2023-07-16T12:31:20;31.60;1.00
506;DHT22;551;48.524;9.056;2023-07-16T12:33:46;31.10;1.00
506;DHT22;551;48.524;9.056;2023-07-16T12:36:12;31.10;1.00
506;DHT22;551;48.524;9.056;2023-07-16T12:38:38;31.10;1.00
506;DHT22;551;48.524;9.056;2023-07-16T12:41:03;31.10;1.00
506;DHT22;551;48.524;9.056;2023-07-16T12:43:29;31.30;1.00
506;DHT22;551;48.524;9.056;2023-07-16T12:45:54;31.80;1.00
506;DHT22;551;48.524;9.056;2023-07-16T12:48:20;32.00;1.00
506;DHT22;551;48.524;9.056;2023-07-16T12:50:45;32.10;1.00
506;DHT22;551;48.524;9.056;2023-07-16T12:53:11;32.10;1.00
506;DHT22;551;48.524;9.056;2023-07-16T12:55:38;32.20;1.00
506;DHT22;551;48.524;9.056;2023-07-16T12:58:03;32.30;1.00
506;DHT22;551;48.524;9.056;2023-07-16T13:00:29;32.30;1.00
506;DHT22;551;48.524;9.056;2023-07-16T13:02:54;32.50;1.00
506;DHT22;551;48.524;9.056;2023-07-16T13:05:20;32.70;1.00
506;DHT22;551;48.524;9.056;2023-07-16T13:07:45;32.60;1.00
506;DHT22;551;48.524;9.056;2023-07-16T13:10:11;32.50;1.00
506;DHT22;551;48.524;9.056;2023-07-16T13:12:36;32.70;1.00
506;DHT22;551;48.524;9.056;2023-07-16T13:15:02;32.80;1.00
506;DHT22;551;48.524;9.056;2023-07-16T13:17:28;32.90;1.00
506;DHT22;551;48.524;9.056;2023-07-16T13:19:53;32.60;1.00
506;DHT22;551;48.524;9.056;2023-07-16T13:22:19;32.30;1.00
506;DHT22;551;48.524;9.056;2023-07-16T13:24:44;31.80;1.00
506;DHT22;551;48.524;9.056;2023-07-16T13:27:19;31.40;1.00
506;DHT22;551;48.524;9.056;2023-07-16T13:29:45;31.30;1.00
506;DHT22;551;48.524;9.056;2023-07-16T13:32:10;31.20;1.00
506;DHT22;551;48.524;9.056;2023-07-16T13:34:36;31.00;1.00
506;DHT22;551;48.524;9.056;2023-07-16T13:37:01;31.10;1.00
506;DHT22;551;48.524;9.056;2023-07-16T13:39:27;31.10;1.00
506;DHT22;551;48.524;9.056;2023-07-16T13:41:52;31.10;1.00
506;DHT22;551;48.524;9.056;2023-07-16T13:44:18;31.30;1.00
506;DHT22;551;48.524;9.056;2023-07-16T13:46:43;31.30;1.00
506;DHT22;551;48.524;9.056;2023-07-16T13:49:09;31.20;1.00
506;DHT22;551;48.524;9.056;2023-07-16T13:51:34;31.10;1.00
506;DHT22;551;48.524;9.056;2023-07-16T13:54:00;31.00;1.00
506;DHT22;551;48.524;9.056;2023-07-16T13:56:25;31.10;1.00
506;DHT22;551;48.524;9.056;2023-07-16T13:58:51;31.00;1.00
506;DHT22;551;48.524;9.056;2023-07-16T14:01:16;30.90;1.00
506;DHT22;551;48.524;9.056;2023-07-16T14:03:43;31.00;1.00
506;DHT22;551;48.524;9.056;2023-07-16T14:06:09;31.10;1.00
506;DHT22;551;48.524;9.056;2023-07-16T14:08:34;31.10;1.00
506;DHT22;551;48.524;9.056;2023-07-16T14:11:01;31.00;1.00
506;DHT22;551;48.524;9.056;2023-07-16T14:13:28;31.00;1.00
506;DHT22;551;48.524;9.056;2023-07-16T14:15:53;30.90;1.00
506;DHT22;551;48.524;9.056;2023-07-16T14:18:19;30.70;1.00
506;DHT22;551;48.524;9.056;2023-07-16T14:20:44;30.60;1.00
506;DHT22;551;48.524;9.056;2023-07-16T14:23:10;30.50;1.00
506;DHT22;551;48.524;9.056;2023-07-16T14:25:35;30.10;1.00
506;DHT22;551;48.524;9.056;2023-07-16T14:28:01;30.40;1.00
506;DHT22;551;48.524;9.056;2023-07-16T14:30:26;30.50;1.00
506;DHT22;551;48.524;9.056;2023-07-16T14:32:52;30.70;1.00
506;DHT22;551;48.524;9.056;2023-07-16T14:35:17;30.70;1.00
506;DHT22;551;48.524;9.056;2023-07-16T14:37:43;30.70;1.00
506;DHT22;551;48.524;9.056;2023-07-16T14:40:09;30.90;1.00
506;DHT22;551;48.524;9.056;2023-07-16T14:42:35;31.10;1.00
506;DHT22;551;48.524;9.056;2023-07-16T14:45:00;31.40;1.00
506;DHT22;551;48.524;9.056;2023-07-16T14:47:26;31.50;1.00
506;DHT22;551;48.524;9.056;2023-07-16T14:49:52;31.70;1.00
506;DHT22;551;48.524;9.056;2023-07-16T14:52:18;31.60;1.00
506;DHT22;551;48.524;9.056;2023-07-16T14:54:44;31.80;1.00
506;DHT22;551;48.524;9.056;2023-07-16T14:57:09;31.70;1.00
506;DHT22;551;48.524;9.056;2023-07-16T14:59:35;31.80;1.00
506;DHT22;551;48.524;9.056;2023-07-16T15:02:02;31.70;1.00
506;DHT22;551;48.524;9.056;2023-07-16T15:04:28;31.60;1.00
506;DHT22;551;48.524;9.056;2023-07-16T15:06:53;31.60;1.00
506;DHT22;551;48.524;9.056;2023-07-16T15:09:19;31.40;1.00
506;DHT22;551;48.524;9.056;2023-07-16T15:11:45;31.20;1.00
506;DHT22;551;48.524;9.056;2023-07-16T15:14:10;31.00;1.00
506;DHT22;551;48.524;9.056;2023-07-16T15:16:36;30.90;1.00
506;DHT22;551;48.524;9.056;2023-07-16T15:19:02;30.90;1.00
506;DHT22;551;48.524;9.056;2023-07-16T15:21:28;31.00;1.00
506;DHT22;551;48.524;9.056;2023-07-16T15:23:53;30.60;1.00
506;DHT22;551;48.524;9.056;2023-07-16T15:26:19;30.50;1.00
506;DHT22;551;48.524;9.056;2023-07-16T15:28:44;30.50;1.00
506;DHT22;551;48.524;9.056;2023-07-16T15:31:10;30.50;1.00
506;DHT22;551;48.524;9.056;2023-07-16T15:33:37;30.40;1.00
506;DHT22;551;48.524;9.056;2023-07-16T15:36:03;30.30;1.00
506;DHT22;551;48.524;9.056;2023-07-16T15:38:29;30.20;1.00
506;DHT22;551;48.524;9.056;2023-07-16T15:40:55;30.10;1.00
506;DHT22;551;48.524;9.056;2023-07-16T15:43:20;30.00;1.00
506;DHT22;551;48.524;9.056;2023-07-16T15:45:46;29.90;1.00
506;DHT22;551;48.524;9.056;2023-07-16T15:48:11;29.80;1.00
506;DHT22;551;48.524;9.056;2023-07-16T15:50:38;29.70;1.00
506;DHT22;551;48.524;9.056;2023-07-16T15:53:03;29.50;1.00
506;DHT22;551;48.524;9.056;2023-07-16T15:55:29;29.40;1.00
506;DHT22;551;48.524;9.056;2023-07-16T15:57:57;29.10;1.00
506;DHT22;551;48.524;9.056;2023-07-16T16:00:23;29.00;1.00
506;DHT22;551;48.524;9.056;2023-07-16T16:02:51;28.80;1.00
506;DHT22;551;48.524;9.056;2023-07-16T16:05:17;28.60;1.00
506;DHT22;551;48.524;9.056;2023-07-16T16:08:10;28.40;1.00
506;DHT22;551;48.524;9.056;2023-07-16T16:10:37;28.40;1.00
506;DHT22;551;48.524;9.056;2023-07-16T16:13:02;28.30;1.00
506;DHT22;551;48.524;9.056;2023-07-16T16:15:28;28.20;1.00
506;DHT22;551;48.524;9.056;2023-07-16T16:17:53;28.20;1.00
506;DHT22;551;48.524;9.056;2023-07-16T16:20:19;28.20;1.00
506;DHT22;551;48.524;9.056;2023-07-16T16:22:44;28.20;1.00
506;DHT22;551;48.524;9.056;2023-07-16T16:25:10;28.10;1.00
506;DHT22;551;48.524;9.056;2023-07-16T16:27:35;28.10;1.00
506;DHT22;551;48.524;9.056;2023-07-16T16:30:01;28.00;1.00
506;DHT22;551;48.524;9.056;2023-07-16T16:32:27;28.00;1.00
506;DHT22;551;48.524;9.056;2023-07-16T16:34:53;27.90;1.00
506;DHT22;551;48.524;9.056;2023-07-16T16:37:18;27.80;1.00
506;DHT22;551;48.524;9.056;2023-07-16T16:39:44;27.80;1.00
506;DHT22;551;48.524;9.056;2023-07-16T16:42:10;27.80;1.00
506;DHT22;551;48.524;9.056;2023-07-16T16:44:35;27.80;1.00
506;DHT22;551;48.524;9.056;2023-07-16T16:47:01;27.80;1.00
506;DHT22;551;48.524;9.056;2023-07-16T16:49:26;27.70;1.00
506;DHT22;551;48.524;9.056;2023-07-16T16:51:52;27.80;1.00
506;DHT22;551;48.524;9.056;2023-07-16T16:54:17;27.90;1.00
506;DHT22;551;48.524;9.056;2023-07-16T16:56:43;28.00;1.00
506;DHT22;551;48.524;9.056;2023-07-16T16:59:09;27.90;1.00
506;DHT22;551;48.524;9.056;2023-07-16T17:01:34;27.80;1.00
506;DHT22;551;48.524;9.056;2023-07-16T17:04:00;27.70;1.00
506;DHT22;551;48.524;9.056;2023-07-16T17:06:25;27.70;1.00
506;DHT22;551;48.524;9.056;2023-07-16T17:08:51;27.60;1.00
506;DHT22;551;48.524;9.056;2023-07-16T17:11:16;27.60;1.00
506;DHT22;551;48.524;9.056;2023-07-16T17:13:42;27.50;1.00
506;DHT22;551;48.524;9.056;2023-07-16T17:16:07;27.50;1.00
506;DHT22;551;48.524;9.056;2023-07-16T17:18:34;27.40;1.00